sensor_id;sensor_type;location;lat;lon;timestamp;P1;durP1;ratioP1;P2;durP2;ratioP2
39176;SDS011;24904;52.208;21.192;2023-04-25T00:03:18;14.20;;;9.70;;
39176;SDS011;24904;52.208;21.192;2023-04-25T00:08:22;13.80;;;10.10;;
39176;SDS011;24904;52.208;21.192;2023-04-25T00:13:26;12.30;;;10.20;;
39176;SDS011;24904;52.208;21.192;2023-04-25T00:18:29;15.00;;;10.40;;
39176;SDS011;24904;52.208;21.192;2023-04-25T00:23:34;17.00;;;10.70;;
39176;SDS011;24904;52.208;21.192;2023-04-25T00:28:38;15.40;;;10.80;;
39176;SDS011;24904;52.208;21.192;2023-04-25T00:33:41;17.80;;;12.40;;
39176;SDS011;24904;52.208;21.192;2023-04-25T00:38:44;15.00;;;12.40;;
39176;SDS011;24904;52.208;21.192;2023-04-25T00:43:48;14.20;;;11.50;;
39176;SDS011;24904;52.208;21.192;2023-04-25T00:48:52;14.80;;;11.40;;
39176;SDS011;24904;52.208;21.192;2023-04-25T00:53:55;15.70;;;11.90;;
39176;SDS011;24904;52.208;21.192;2023-04-25T00:58:59;18.60;;;11.70;;
39176;SDS011;24904;52.208;21.192;2023-04-25T01:04:02;14.70;;;11.00;;
39176;SDS011;24904;52.208;21.192;2023-04-25T01:09:05;18.70;;;11.70;;
39176;SDS011;24904;52.208;21.192;2023-04-25T01:14:08;12.80;;;10.90;;
39176;SDS011;24904;52.208;21.192;2023-04-25T01:19:11;15.60;;;12.20;;
39176;SDS011;24904;52.208;21.192;2023-04-25T01:29:23;15.50;;;12.00;;
39176;SDS011;24904;52.208;21.192;2023-04-25T01:34:27;16.60;;;12.20;;
39176;SDS011;24904;52.208;21.192;2023-04-25T01:39:32;17.10;;;12.60;;
39176;SDS011;24904;52.208;21.192;2023-04-25T01:44:36;17.20;;;11.10;;
39176;SDS011;24904;52.208;21.192;2023-04-25T01:57:55;17.20;;;12.20;;
39176;SDS011;24904;52.208;21.192;2023-04-25T02:03:11;18.60;;;12.10;;
39176;SDS011;24904;52.208;21.192;2023-04-25T02:08:16;22.40;;;13.50;;
39176;SDS011;24904;52.208;21.192;2023-04-25T02:13:19;20.20;;;13.90;;
39176;SDS011;24904;52.208;21.192;2023-04-25T02:18:39;16.80;;;12.60;;
39176;SDS011;24904;52.208;21.192;2023-04-25T02:23:42;16.90;;;14.30;;
39176;SDS011;24904;52.208;21.192;2023-04-25T02:28:47;19.40;;;13.90;;
39176;SDS011;24904;52.208;21.192;2023-04-25T02:33:50;17.00;;;13.20;;
39176;SDS011;24904;52.208;21.192;2023-04-25T02:38:53;24.10;;;14.40;;
39176;SDS011;24904;52.208;21.192;2023-04-25T02:43:56;19.00;;;13.70;;
39176;SDS011;24904;52.208;21.192;2023-04-25T02:48:59;20.00;;;13.60;;
39176;SDS011;24904;52.208;21.192;2023-04-25T02:54:02;19.20;;;13.70;;
39176;SDS011;24904;52.208;21.192;2023-04-25T02:59:11;21.90;;;14.20;;
39176;SDS011;24904;52.208;21.192;2023-04-25T03:04:14;16.60;;;13.70;;
39176;SDS011;24904;52.208;21.192;2023-04-25T03:09:17;17.10;;;13.10;;
39176;SDS011;24904;52.208;21.192;2023-04-25T03:14:21;17.00;;;11.90;;
39176;SDS011;24904;52.208;21.192;2023-04-25T03:19:24;15.00;;;11.80;;
39176;SDS011;24904;52.208;21.192;2023-04-25T03:24:27;18.30;;;12.20;;
39176;SDS011;24904;52.208;21.192;2023-04-25T03:29:31;17.50;;;11.80;;
39176;SDS011;24904;52.208;21.192;2023-04-25T03:34:37;16.20;;;11.60;;
39176;SDS011;24904;52.208;21.192;2023-04-25T03:39:40;15.60;;;12.10;;
39176;SDS011;24904;52.208;21.192;2023-04-25T03:44:44;20.10;;;13.30;;
39176;SDS011;24904;52.208;21.192;2023-04-25T03:49:48;16.60;;;11.70;;
39176;SDS011;24904;52.208;21.192;2023-04-25T04:03:40;16.30;;;10.20;;
39176;SDS011;24904;52.208;21.192;2023-04-25T04:08:44;13.50;;;9.40;;
39176;SDS011;24904;52.208;21.192;2023-04-25T04:13:48;15.60;;;11.30;;
39176;SDS011;24904;52.208;21.192;2023-04-25T04:18:51;14.70;;;9.90;;
39176;SDS011;24904;52.208;21.192;2023-04-25T04:23:54;17.10;;;11.10;;
39176;SDS011;24904;52.208;21.192;2023-04-25T04:29:00;12.70;;;9.80;;
39176;SDS011;24904;52.208;21.192;2023-04-25T04:34:20;12.30;;;9.70;;
39176;SDS011;24904;52.208;21.192;2023-04-25T04:39:26;13.50;;;10.80;;
39176;SDS011;24904;52.208;21.192;2023-04-25T04:44:38;15.00;;;10.20;;
39176;SDS011;24904;52.208;21.192;2023-04-25T04:49:58;15.50;;;9.60;;
39176;SDS011;24904;52.208;21.192;2023-04-25T04:55:13;24.60;;;10.10;;
39176;SDS011;24904;52.208;21.192;2023-04-25T05:00:28;12.40;;;9.20;;
39176;SDS011;24904;52.208;21.192;2023-04-25T05:05:51;11.30;;;8.30;;
39176;SDS011;24904;52.208;21.192;2023-04-25T05:11:17;14.70;;;9.30;;
39176;SDS011;24904;52.208;21.192;2023-04-25T05:16:34;13.70;;;7.90;;
39176;SDS011;24904;52.208;21.192;2023-04-25T05:22:10;12.10;;;7.90;;
39176;SDS011;24904;52.208;21.192;2023-04-25T05:27:34;9.00;;;7.50;;
39176;SDS011;24904;52.208;21.192;2023-04-25T05:33:01;12.80;;;8.60;;
39176;SDS011;24904;52.208;21.192;2023-04-25T05:38:04;10.00;;;8.10;;
39176;SDS011;24904;52.208;21.192;2023-04-25T05:43:27;10.00;;;7.90;;
39176;SDS011;24904;52.208;21.192;2023-04-25T05:48:45;8.90;;;7.70;;
39176;SDS011;24904;52.208;21.192;2023-04-25T05:54:10;12.50;;;7.40;;
39176;SDS011;24904;52.208;21.192;2023-04-25T05:59:14;9.50;;;7.70;;
39176;SDS011;24904;52.208;21.192;2023-04-25T06:04:17;8.90;;;7.30;;
39176;SDS011;24904;52.208;21.192;2023-04-25T06:09:20;8.70;;;6.80;;
39176;SDS011;24904;52.208;21.192;2023-04-25T06:14:23;9.50;;;7.80;;
39176;SDS011;24904;52.208;21.192;2023-04-25T06:19:26;8.20;;;7.10;;
39176;SDS011;24904;52.208;21.192;2023-04-25T06:24:29;9.70;;;7.30;;
39176;SDS011;24904;52.208;21.192;2023-04-25T06:29:33;10.00;;;7.10;;
39176;SDS011;24904;52.208;21.192;2023-04-25T06:34:36;10.70;;;9.40;;
39176;SDS011;24904;52.208;21.192;2023-04-25T06:39:40;9.40;;;7.80;;
39176;SDS011;24904;52.208;21.192;2023-04-25T06:44:45;11.50;;;8.40;;
39176;SDS011;24904;52.208;21.192;2023-04-25T06:49:49;11.70;;;9.70;;
39176;SDS011;24904;52.208;21.192;2023-04-25T06:54:52;12.80;;;8.60;;
39176;SDS011;24904;52.208;21.192;2023-04-25T07:00:25;13.30;;;9.30;;
39176;SDS011;24904;52.208;21.192;2023-04-25T07:05:30;11.90;;;9.30;;
39176;SDS011;24904;52.208;21.192;2023-04-25T07:10:33;11.90;;;10.00;;
39176;SDS011;24904;52.208;21.192;2023-04-25T07:15:37;11.10;;;9.90;;
39176;SDS011;24904;52.208;21.192;2023-04-25T07:20:41;11.00;;;9.00;;
39176;SDS011;24904;52.208;21.192;2023-04-25T07:25:44;8.10;;;6.60;;
39176;SDS011;24904;52.208;21.192;2023-04-25T07:30:49;8.80;;;7.90;;
39176;SDS011;24904;52.208;21.192;2023-04-25T07:35:52;15.50;;;8.90;;
39176;SDS011;24904;52.208;21.192;2023-04-25T07:49:43;10.90;;;7.80;;
39176;SDS011;24904;52.208;21.192;2023-04-25T07:54:47;10.50;;;9.00;;
39176;SDS011;24904;52.208;21.192;2023-04-25T07:59:53;10.70;;;8.60;;
39176;SDS011;24904;52.208;21.192;2023-04-25T08:04:57;9.10;;;8.20;;
39176;SDS011;24904;52.208;21.192;2023-04-25T08:10:07;8.50;;;7.60;;
39176;SDS011;24904;52.208;21.192;2023-04-25T08:15:11;10.80;;;7.70;;
39176;SDS011;24904;52.208;21.192;2023-04-25T08:20:15;8.80;;;7.70;;
39176;SDS011;24904;52.208;21.192;2023-04-25T08:25:19;10.70;;;8.20;;
39176;SDS011;24904;52.208;21.192;2023-04-25T08:30:23;9.30;;;8.20;;
39176;SDS011;24904;52.208;21.192;2023-04-25T08:35:26;9.60;;;8.50;;
39176;SDS011;24904;52.208;21.192;2023-04-25T08:40:30;9.50;;;8.30;;
39176;SDS011;24904;52.208;21.192;2023-04-25T08:45:43;11.50;;;9.60;;
39176;SDS011;24904;52.208;21.192;2023-04-25T08:51:02;10.70;;;9.60;;
39176;SDS011;24904;52.208;21.192;2023-04-25T08:56:09;11.40;;;9.90;;
39176;SDS011;24904;52.208;21.192;2023-04-25T09:01:14;10.40;;;9.20;;
39176;SDS011;24904;52.208;21.192;2023-04-25T09:06:23;10.00;;;8.90;;
39176;SDS011;24904;52.208;21.192;2023-04-25T09:11:27;11.80;;;9.10;;
39176;SDS011;24904;52.208;21.192;2023-04-25T09:16:31;10.80;;;8.90;;
39176;SDS011;24904;52.208;21.192;2023-04-25T09:21:36;9.20;;;7.60;;
39176;SDS011;24904;52.208;21.192;2023-04-25T09:26:40;10.30;;;7.80;;
39176;SDS011;24904;52.208;21.192;2023-04-25T09:31:43;11.00;;;7.70;;
39176;SDS011;24904;52.208;21.192;2023-04-25T09:36:47;9.60;;;8.10;;
39176;SDS011;24904;52.208;21.192;2023-04-25T09:42:08;12.80;;;10.40;;
39176;SDS011;24904;52.208;21.192;2023-04-25T09:47:12;14.90;;;10.80;;
39176;SDS011;24904;52.208;21.192;2023-04-25T09:52:19;12.20;;;9.50;;
39176;SDS011;24904;52.208;21.192;2023-04-25T09:57:40;9.30;;;7.60;;
39176;SDS011;24904;52.208;21.192;2023-04-25T10:02:45;10.10;;;6.50;;
39176;SDS011;24904;52.208;21.192;2023-04-25T10:08:16;8.30;;;6.70;;
39176;SDS011;24904;52.208;21.192;2023-04-25T10:13:20;10.90;;;7.60;;
39176;SDS011;24904;52.208;21.192;2023-04-25T10:18:25;9.00;;;7.40;;
39176;SDS011;24904;52.208;21.192;2023-04-25T10:23:29;9.60;;;8.40;;
39176;SDS011;24904;52.208;21.192;2023-04-25T10:28:45;11.00;;;8.20;;
39176;SDS011;24904;52.208;21.192;2023-04-25T10:33:58;11.00;;;9.00;;
39176;SDS011;24904;52.208;21.192;2023-04-25T10:39:03;16.30;;;9.50;;
39176;SDS011;24904;52.208;21.192;2023-04-25T10:44:08;19.40;;;9.80;;
39176;SDS011;24904;52.208;21.192;2023-04-25T10:49:14;13.70;;;10.30;;
39176;SDS011;24904;52.208;21.192;2023-04-25T10:54:31;12.80;;;10.90;;
39176;SDS011;24904;52.208;21.192;2023-04-25T10:59:34;13.00;;;11.40;;
39176;SDS011;24904;52.208;21.192;2023-04-25T11:04:41;13.70;;;12.30;;
39176;SDS011;24904;52.208;21.192;2023-04-25T11:09:46;14.10;;;12.60;;
39176;SDS011;24904;52.208;21.192;2023-04-25T11:14:50;13.20;;;11.80;;
39176;SDS011;24904;52.208;21.192;2023-04-25T11:19:59;14.70;;;13.00;;
39176;SDS011;24904;52.208;21.192;2023-04-25T11:25:06;15.30;;;13.80;;
39176;SDS011;24904;52.208;21.192;2023-04-25T11:30:11;15.90;;;13.60;;
39176;SDS011;24904;52.208;21.192;2023-04-25T11:35:18;15.10;;;13.30;;
39176;SDS011;24904;52.208;21.192;2023-04-25T11:40:24;15.10;;;13.10;;
39176;SDS011;24904;52.208;21.192;2023-04-25T11:45:27;13.10;;;11.60;;
39176;SDS011;24904;52.208;21.192;2023-04-25T11:50:31;9.90;;;8.00;;
39176;SDS011;24904;52.208;21.192;2023-04-25T11:55:34;9.50;;;8.20;;
39176;SDS011;24904;52.208;21.192;2023-04-25T12:00:38;11.80;;;7.30;;
39176;SDS011;24904;52.208;21.192;2023-04-25T12:05:44;10.10;;;7.40;;
39176;SDS011;24904;52.208;21.192;2023-04-25T12:10:48;7.90;;;6.90;;
39176;SDS011;24904;52.208;21.192;2023-04-25T12:15:51;9.80;;;6.90;;
39176;SDS011;24904;52.208;21.192;2023-04-25T12:20:55;9.00;;;6.80;;
39176;SDS011;24904;52.208;21.192;2023-04-25T12:25:59;9.00;;;6.60;;
39176;SDS011;24904;52.208;21.192;2023-04-25T12:31:04;7.80;;;6.30;;
39176;SDS011;24904;52.208;21.192;2023-04-25T12:36:08;8.90;;;7.30;;
39176;SDS011;24904;52.208;21.192;2023-04-25T12:41:13;9.50;;;7.10;;
39176;SDS011;24904;52.208;21.192;2023-04-25T12:46:16;8.50;;;7.20;;
39176;SDS011;24904;52.208;21.192;2023-04-25T12:51:19;11.30;;;7.70;;
39176;SDS011;24904;52.208;21.192;2023-04-25T12:56:26;8.40;;;7.40;;
39176;SDS011;24904;52.208;21.192;2023-04-25T13:01:30;8.50;;;7.00;;
39176;SDS011;24904;52.208;21.192;2023-04-25T13:06:33;8.40;;;6.80;;
39176;SDS011;24904;52.208;21.192;2023-04-25T13:11:37;7.70;;;6.50;;
39176;SDS011;24904;52.208;21.192;2023-04-25T13:16:40;6.80;;;5.60;;
39176;SDS011;24904;52.208;21.192;2023-04-25T13:21:43;6.20;;;5.00;;
39176;SDS011;24904;52.208;21.192;2023-04-25T13:26:46;7.30;;;4.70;;
39176;SDS011;24904;52.208;21.192;2023-04-25T13:31:49;8.40;;;4.50;;
39176;SDS011;24904;52.208;21.192;2023-04-25T13:36:52;5.80;;;4.30;;
39176;SDS011;24904;52.208;21.192;2023-04-25T13:41:55;6.80;;;4.10;;
39176;SDS011;24904;52.208;21.192;2023-04-25T13:46:58;5.20;;;3.90;;
39176;SDS011;24904;52.208;21.192;2023-04-25T13:52:02;8.10;;;3.40;;
39176;SDS011;24904;52.208;21.192;2023-04-25T13:57:05;3.90;;;2.70;;
39176;SDS011;24904;52.208;21.192;2023-04-25T14:02:08;4.70;;;3.00;;
39176;SDS011;24904;52.208;21.192;2023-04-25T14:07:11;4.10;;;2.50;;
39176;SDS011;24904;52.208;21.192;2023-04-25T14:12:17;6.40;;;1.50;;
39176;SDS011;24904;52.208;21.192;2023-04-25T14:17:20;2.60;;;1.70;;
39176;SDS011;24904;52.208;21.192;2023-04-25T14:22:23;2.50;;;1.80;;
39176;SDS011;24904;52.208;21.192;2023-04-25T14:27:27;4.60;;;2.20;;
39176;SDS011;24904;52.208;21.192;2023-04-25T14:32:30;5.10;;;2.00;;
39176;SDS011;24904;52.208;21.192;2023-04-25T14:37:33;3.50;;;2.50;;
39176;SDS011;24904;52.208;21.192;2023-04-25T14:42:36;4.20;;;2.90;;
39176;SDS011;24904;52.208;21.192;2023-04-25T14:47:40;5.70;;;3.20;;
39176;SDS011;24904;52.208;21.192;2023-04-25T14:52:43;4.60;;;3.30;;
39176;SDS011;24904;52.208;21.192;2023-04-25T14:57:47;5.20;;;3.70;;
39176;SDS011;24904;52.208;21.192;2023-04-25T15:02:50;5.00;;;4.00;;
39176;SDS011;24904;52.208;21.192;2023-04-25T15:07:53;5.80;;;4.60;;
39176;SDS011;24904;52.208;21.192;2023-04-25T15:12:56;5.80;;;4.50;;
39176;SDS011;24904;52.208;21.192;2023-04-25T15:17:59;7.10;;;4.40;;
39176;SDS011;24904;52.208;21.192;2023-04-25T15:23:03;6.10;;;4.80;;
39176;SDS011;24904;52.208;21.192;2023-04-25T15:28:06;9.20;;;5.60;;
39176;SDS011;24904;52.208;21.192;2023-04-25T15:33:09;7.90;;;5.40;;
39176;SDS011;24904;52.208;21.192;2023-04-25T15:38:13;9.30;;;7.00;;
39176;SDS011;24904;52.208;21.192;2023-04-25T15:43:16;13.80;;;11.70;;
39176;SDS011;24904;52.208;21.192;2023-04-25T15:48:19;10.40;;;9.30;;
39176;SDS011;24904;52.208;21.192;2023-04-25T15:53:22;8.60;;;7.50;;
39176;SDS011;24904;52.208;21.192;2023-04-25T15:58:25;9.60;;;8.50;;
39176;SDS011;24904;52.208;21.192;2023-04-25T16:03:28;11.30;;;9.10;;
39176;SDS011;24904;52.208;21.192;2023-04-25T16:08:31;11.20;;;8.10;;
39176;SDS011;24904;52.208;21.192;2023-04-25T16:13:36;10.20;;;8.30;;
39176;SDS011;24904;52.208;21.192;2023-04-25T16:18:39;10.40;;;7.80;;
39176;SDS011;24904;52.208;21.192;2023-04-25T16:23:42;14.70;;;9.20;;
39176;SDS011;24904;52.208;21.192;2023-04-25T16:28:45;9.60;;;7.90;;
39176;SDS011;24904;52.208;21.192;2023-04-25T16:33:48;9.30;;;7.70;;
39176;SDS011;24904;52.208;21.192;2023-04-25T16:38:51;9.50;;;6.80;;
39176;SDS011;24904;52.208;21.192;2023-04-25T16:43:54;8.60;;;6.60;;
39176;SDS011;24904;52.208;21.192;2023-04-25T16:48:58;10.00;;;6.10;;
39176;SDS011;24904;52.208;21.192;2023-04-25T16:54:01;10.30;;;7.00;;
39176;SDS011;24904;52.208;21.192;2023-04-25T16:59:04;8.10;;;6.00;;
39176;SDS011;24904;52.208;21.192;2023-04-25T17:04:07;8.50;;;5.80;;
39176;SDS011;24904;52.208;21.192;2023-04-25T17:09:10;10.60;;;6.60;;
39176;SDS011;24904;52.208;21.192;2023-04-25T17:14:13;8.80;;;6.60;;
39176;SDS011;24904;52.208;21.192;2023-04-25T17:19:16;9.50;;;7.20;;
39176;SDS011;24904;52.208;21.192;2023-04-25T17:24:20;10.00;;;7.20;;
39176;SDS011;24904;52.208;21.192;2023-04-25T17:29:23;10.40;;;6.80;;
39176;SDS011;24904;52.208;21.192;2023-04-25T17:34:27;13.60;;;7.30;;
39176;SDS011;24904;52.208;21.192;2023-04-25T17:39:32;12.30;;;8.30;;
39176;SDS011;24904;52.208;21.192;2023-04-25T17:44:35;13.00;;;8.30;;
39176;SDS011;24904;52.208;21.192;2023-04-25T17:49:38;11.30;;;8.20;;
39176;SDS011;24904;52.208;21.192;2023-04-25T17:54:41;11.30;;;7.20;;
39176;SDS011;24904;52.208;21.192;2023-04-25T17:59:44;11.70;;;8.30;;
39176;SDS011;24904;52.208;21.192;2023-04-25T18:04:47;12.50;;;7.80;;
39176;SDS011;24904;52.208;21.192;2023-04-25T18:09:50;10.80;;;8.00;;
39176;SDS011;24904;52.208;21.192;2023-04-25T18:14:53;13.90;;;7.80;;
39176;SDS011;24904;52.208;21.192;2023-04-25T18:19:57;11.30;;;7.70;;
39176;SDS011;24904;52.208;21.192;2023-04-25T18:25:02;12.10;;;7.80;;
39176;SDS011;24904;52.208;21.192;2023-04-25T18:30:06;10.10;;;7.50;;
39176;SDS011;24904;52.208;21.192;2023-04-25T18:35:11;9.80;;;7.00;;
39176;SDS011;24904;52.208;21.192;2023-04-25T18:40:14;10.00;;;7.20;;
39176;SDS011;24904;52.208;21.192;2023-04-25T18:45:18;10.20;;;6.60;;
39176;SDS011;24904;52.208;21.192;2023-04-25T18:50:21;11.40;;;7.80;;
39176;SDS011;24904;52.208;21.192;2023-04-25T18:55:26;15.10;;;8.10;;
39176;SDS011;24904;52.208;21.192;2023-04-25T19:00:30;12.00;;;8.90;;
39176;SDS011;24904;52.208;21.192;2023-04-25T19:05:33;12.70;;;8.60;;
39176;SDS011;24904;52.208;21.192;2023-04-25T19:10:36;11.90;;;8.10;;
39176;SDS011;24904;52.208;21.192;2023-04-25T19:22:49;13.30;;;9.20;;
39176;SDS011;24904;52.208;21.192;2023-04-25T19:27:52;15.70;;;9.90;;
39176;SDS011;24904;52.208;21.192;2023-04-25T19:33:34;12.60;;;9.10;;
39176;SDS011;24904;52.208;21.192;2023-04-25T19:38:37;12.90;;;9.30;;
39176;SDS011;24904;52.208;21.192;2023-04-25T19:43:40;14.60;;;8.60;;
39176;SDS011;24904;52.208;21.192;2023-04-25T19:48:43;13.90;;;8.50;;
39176;SDS011;24904;52.208;21.192;2023-04-25T19:53:46;12.50;;;9.10;;
39176;SDS011;24904;52.208;21.192;2023-04-25T19:58:49;12.10;;;8.50;;
39176;SDS011;24904;52.208;21.192;2023-04-25T20:03:53;12.90;;;8.10;;
39176;SDS011;24904;52.208;21.192;2023-04-25T20:08:56;11.90;;;9.20;;
39176;SDS011;24904;52.208;21.192;2023-04-25T20:13:59;14.30;;;9.00;;
39176;SDS011;24904;52.208;21.192;2023-04-25T20:19:02;15.30;;;9.40;;
39176;SDS011;24904;52.208;21.192;2023-04-25T20:24:06;13.00;;;7.80;;
39176;SDS011;24904;52.208;21.192;2023-04-25T20:29:09;9.90;;;7.50;;
39176;SDS011;24904;52.208;21.192;2023-04-25T20:34:12;11.10;;;8.10;;
39176;SDS011;24904;52.208;21.192;2023-04-25T20:39:15;11.40;;;7.30;;
39176;SDS011;24904;52.208;21.192;2023-04-25T20:44:18;13.80;;;8.20;;
39176;SDS011;24904;52.208;21.192;2023-04-25T20:49:23;12.80;;;8.20;;
39176;SDS011;24904;52.208;21.192;2023-04-25T20:54:26;11.60;;;9.00;;
39176;SDS011;24904;52.208;21.192;2023-04-25T20:59:30;13.00;;;9.30;;
39176;SDS011;24904;52.208;21.192;2023-04-25T21:04:33;10.90;;;8.90;;
39176;SDS011;24904;52.208;21.192;2023-04-25T21:09:36;14.50;;;10.20;;
39176;SDS011;24904;52.208;21.192;2023-04-25T21:14:40;12.90;;;9.60;;
39176;SDS011;24904;52.208;21.192;2023-04-25T21:19:43;14.30;;;10.30;;
39176;SDS011;24904;52.208;21.192;2023-04-25T21:24:46;16.30;;;11.10;;
39176;SDS011;24904;52.208;21.192;2023-04-25T21:29:50;18.00;;;11.00;;
39176;SDS011;24904;52.208;21.192;2023-04-25T21:34:53;15.80;;;10.60;;
39176;SDS011;24904;52.208;21.192;2023-04-25T21:39:57;13.30;;;9.60;;
39176;SDS011;24904;52.208;21.192;2023-04-25T21:45:00;12.70;;;9.50;;
39176;SDS011;24904;52.208;21.192;2023-04-25T21:50:04;13.90;;;9.30;;
39176;SDS011;24904;52.208;21.192;2023-04-25T21:55:08;11.10;;;8.80;;
39176;SDS011;24904;52.208;21.192;2023-04-25T22:08:40;12.50;;;10.20;;
39176;SDS011;24904;52.208;21.192;2023-04-25T22:13:43;13.10;;;10.00;;
39176;SDS011;24904;52.208;21.192;2023-04-25T22:18:46;15.80;;;10.40;;
39176;SDS011;24904;52.208;21.192;2023-04-25T22:23:52;14.60;;;10.30;;
39176;SDS011;24904;52.208;21.192;2023-04-25T22:28:56;18.60;;;12.80;;
39176;SDS011;24904;52.208;21.192;2023-04-25T22:34:00;17.60;;;12.60;;
39176;SDS011;24904;52.208;21.192;2023-04-25T22:39:03;20.60;;;12.20;;
39176;SDS011;24904;52.208;21.192;2023-04-25T22:44:06;16.80;;;9.60;;
39176;SDS011;24904;52.208;21.192;2023-04-25T22:49:09;12.10;;;7.90;;
39176;SDS011;24904;52.208;21.192;2023-04-25T22:54:12;11.50;;;7.10;;
39176;SDS011;24904;52.208;21.192;2023-04-25T22:59:15;11.00;;;7.00;;
39176;SDS011;24904;52.208;21.192;2023-04-25T23:04:20;10.60;;;5.70;;
39176;SDS011;24904;52.208;21.192;2023-04-25T23:09:24;9.40;;;5.20;;
39176;SDS011;24904;52.208;21.192;2023-04-25T23:14:27;7.70;;;4.90;;
39176;SDS011;24904;52.208;21.192;2023-04-25T23:19:30;7.10;;;4.60;;
39176;SDS011;24904;52.208;21.192;2023-04-25T23:24:35;10.90;;;5.10;;
39176;SDS011;24904;52.208;21.192;2023-04-25T23:29:39;12.70;;;4.30;;
39176;SDS011;24904;52.208;21.192;2023-04-25T23:34:42;9.50;;;4.00;;
39176;SDS011;24904;52.208;21.192;2023-04-25T23:39:48;8.70;;;4.50;;
39176;SDS011;24904;52.208;21.192;2023-04-25T23:44:51;10.40;;;4.70;;
39176;SDS011;24904;52.208;21.192;2023-04-25T23:49:54;9.60;;;4.10;;
39176;SDS011;24904;52.208;21.192;2023-04-25T23:54:58;11.30;;;4.60;;
